createdAt,value
2023-02-15T00:02:27.524Z,102436.56
2023-02-15T00:05:12.593Z,102453.72
2023-02-15T00:07:57.448Z,102453.69
2023-02-15T00:10:42.189Z,102425.31
2023-02-15T00:13:26.974Z,102439.06
2023-02-15T00:16:13.528Z,102441.63
2023-02-15T00:19:02.577Z,102441.66
2023-02-15T00:21:48.208Z,102444.22
2023-02-15T00:24:33.321Z,102440.69
2023-02-15T00:27:18.577Z,102430.34
2023-02-15T00:30:04.054Z,102432.16
2023-02-15T00:32:49.151Z,102421.84
2023-02-15T00:35:34.335Z,102387.44
2023-02-15T00:38:19.324Z,102394.28
2023-02-15T00:41:06.429Z,102400.34
2023-02-15T00:43:51.709Z,102374.56
2023-02-15T00:46:37.301Z,102385.66
2023-02-15T00:49:22.441Z,102393.44
2023-02-15T00:52:07.351Z,102398.66
2023-02-15T00:54:52.227Z,102367.72
2023-02-15T00:57:37.134Z,102387.47
2023-02-15T01:00:22.655Z,102376.28
2023-02-15T01:03:08.104Z,102385.72
2023-02-15T01:05:53.252Z,102392.66
2023-02-15T01:08:39.070Z,102386.63
2023-02-15T01:11:24.528Z,102379.72
2023-02-15T01:14:09.422Z,102376.31
2023-02-15T01:16:54.685Z,102371.94
2023-02-15T01:19:39.944Z,102374.59
2023-02-15T01:22:24.783Z,102372.84
2023-02-15T01:25:10.042Z,102354.75
2023-02-15T01:27:55.076Z,102342.75
2023-02-15T01:30:40.464Z,102359.91
2023-02-15T01:33:26.168Z,102349.59
2023-02-15T01:36:11.363Z,102352.13
2023-02-15T01:38:56.590Z,102328.13
2023-02-15T01:41:41.575Z,102332.38
2023-02-15T01:44:48.315Z,102339.25
2023-02-15T01:47:41.822Z,102335.78
2023-02-15T01:50:30.104Z,102331.53
2023-02-15T01:53:26.514Z,102330.63
2023-02-15T01:56:33.144Z,102328.09
2023-02-15T01:59:22.931Z,102328.16
2023-02-15T02:02:12.920Z,102322.09
2023-02-15T02:05:00.728Z,102322.16
2023-02-15T02:07:47.572Z,102317.84
2023-02-15T02:10:33.040Z,102327.31
2023-02-15T02:13:18.326Z,102310.06
2023-02-15T02:16:39.222Z,102303.22
2023-02-15T02:19:27.171Z,102301.47
2023-02-15T02:22:50.429Z,102298.91
2023-02-15T02:25:53.683Z,102268.88
2023-02-15T02:29:06.305Z,102293.75
2023-02-15T02:32:18.669Z,102248.25
2023-02-15T02:35:12.584Z,102278.28
2023-02-15T02:38:21.678Z,102272.25
2023-02-15T02:41:25.385Z,102271.38
2023-02-15T02:44:25.789Z,102273.97
2023-02-15T02:47:30.750Z,102257.63
2023-02-15T02:50:29.186Z,102253.38
2023-02-15T02:53:14.389Z,102249.03
2023-02-15T02:56:12.982Z,102245.63
2023-02-15T02:59:04.815Z,102254.19
2023-02-15T03:02:00.996Z,102235.34
2023-02-15T03:04:59.285Z,102259.34
2023-02-15T03:07:49.460Z,102252.50
2023-02-15T03:10:36.018Z,102249.13
2023-02-15T03:13:22.728Z,102245.66
2023-02-15T03:16:28.661Z,102212.22
2023-02-15T03:19:23.428Z,102257.69
2023-02-15T03:22:21.436Z,102251.63
2023-02-15T03:25:15.511Z,102219.00
2023-02-15T03:28:07.356Z,102243.88
2023-02-15T03:30:56.737Z,102235.25
2023-02-15T03:33:46.471Z,102232.66
2023-02-15T03:36:36.605Z,102229.31
2023-02-15T03:39:40.927Z,102212.16
2023-02-15T03:42:37.103Z,102204.44
2023-02-15T03:45:29.485Z,102213.06
2023-02-15T03:48:14.730Z,102225.06
2023-02-15T03:51:25.025Z,102216.47
2023-02-15T03:54:46.954Z,102215.63
2023-02-15T03:57:50.978Z,102210.47
2023-02-15T04:00:58.297Z,102206.22
2023-02-15T04:04:04.544Z,102230.22
2023-02-15T04:06:49.766Z,102220.81
2023-02-15T04:09:53.429Z,102194.16
2023-02-15T04:12:38.532Z,102211.31
2023-02-15T04:15:59.071Z,102209.56
2023-02-15T04:19:03.175Z,102197.59
2023-02-15T04:22:07.130Z,102190.72
2023-02-15T04:25:10.395Z,102207.00
2023-02-15T04:27:55.974Z,102202.75
2023-02-15T04:30:40.804Z,102206.16
2023-02-15T04:33:25.767Z,102201.84
2023-02-15T04:36:10.519Z,102208.72
2023-02-15T04:38:55.630Z,102213.00
2023-02-15T04:41:40.743Z,102205.25
2023-02-15T04:44:25.873Z,102209.53
2023-02-15T04:47:10.961Z,102204.41
2023-02-15T04:49:58.039Z,102185.59
2023-02-15T04:52:43.545Z,102177.88
2023-02-15T04:55:28.699Z,102199.31
2023-02-15T04:58:14.248Z,102204.50
2023-02-15T05:00:59.517Z,102195.03
2023-02-15T05:03:44.787Z,102197.66
2023-02-15T05:06:30.630Z,102191.59
2023-02-15T05:09:15.955Z,102179.63
2023-02-15T05:12:01.266Z,102178.72
2023-02-15T05:14:46.168Z,102188.19
2023-02-15T05:17:31.136Z,102182.19
2023-02-15T05:20:16.605Z,102174.41
2023-02-15T05:23:01.483Z,102174.41
2023-02-15T05:26:09.932Z,102146.13
2023-02-15T05:28:55.182Z,102170.13
2023-02-15T05:31:40.687Z,102134.97
2023-02-15T05:34:26.160Z,102140.97
2023-02-15T05:37:11.337Z,102158.09
2023-02-15T05:39:56.509Z,102158.06
2023-02-15T05:42:41.366Z,102145.25
2023-02-15T05:45:26.633Z,102161.53
2023-02-15T05:48:11.635Z,102155.53
2023-02-15T05:51:10.186Z,102167.53
2023-02-15T05:53:55.169Z,102158.06
2023-02-15T05:56:40.262Z,102170.97
2023-02-15T05:59:25.293Z,102161.53
2023-02-15T06:02:10.392Z,102158.09
2023-02-15T06:04:55.456Z,102165.88
2023-02-15T06:07:43.364Z,102159.84
2023-02-15T06:10:28.325Z,102169.25
2023-02-15T06:13:13.177Z,102175.25
2023-02-15T06:15:58.222Z,102167.53
2023-02-15T06:18:43.858Z,102142.63
2023-02-15T06:21:29.481Z,102164.94
2023-02-15T06:24:14.618Z,102164.94
2023-02-15T06:26:59.930Z,102159.78
2023-02-15T06:29:44.795Z,102154.63
2023-02-15T06:32:29.933Z,102145.22
2023-02-15T06:35:15.029Z,102154.66
2023-02-15T06:38:00.350Z,102148.66
2023-02-15T06:40:45.707Z,102130.66
2023-02-15T06:43:30.621Z,102154.72
2023-02-15T06:46:15.738Z,102153.81
2023-02-15T06:49:00.988Z,102149.56
2023-02-15T06:51:46.317Z,102163.28
2023-02-15T06:54:31.413Z,102152.94
2023-02-15T06:57:16.587Z,102133.22
2023-02-15T07:00:02.194Z,102138.38
2023-02-15T07:02:47.376Z,102159.84
2023-02-15T07:05:35.131Z,102171.00
2023-02-15T07:08:28.019Z,102146.09
2023-02-15T07:11:31.625Z,102166.72
2023-02-15T07:14:16.724Z,102166.69
2023-02-15T07:17:02.001Z,102165.00
2023-02-15T07:19:47.239Z,102158.94
2023-02-15T07:22:32.232Z,102161.50
2023-02-15T07:25:18.285Z,102162.34
2023-02-15T07:28:04.798Z,102155.53
2023-02-15T07:30:50.100Z,102137.53
2023-02-15T07:33:35.864Z,102162.44
2023-02-15T07:36:20.836Z,102171.03
2023-02-15T07:39:05.897Z,102166.75
2023-02-15T07:41:51.034Z,102169.31
2023-02-15T07:44:36.076Z,102183.94
2023-02-15T07:47:20.953Z,102178.78
2023-02-15T07:50:06.618Z,102177.06
2023-02-15T07:52:52.161Z,102165.00
2023-02-15T07:55:37.300Z,102173.66
2023-02-15T07:58:42.396Z,102185.66
2023-02-15T08:01:32.124Z,102176.06
2023-02-15T08:04:18.868Z,102190.69
2023-02-15T08:07:03.848Z,102184.63
2023-02-15T08:09:48.948Z,102188.09
2023-02-15T08:12:34.126Z,102181.25
2023-02-15T08:15:19.538Z,102183.00
2023-02-15T08:18:04.506Z,102171.00
2023-02-15T08:20:50.906Z,102131.53
2023-02-15T08:23:36.140Z,102170.13
2023-02-15T08:26:22.383Z,102170.03
2023-02-15T08:29:08.957Z,102183.72
2023-02-15T08:31:59.674Z,102169.09
2023-02-15T08:34:44.898Z,102189.66
2023-02-15T08:37:30.208Z,102176.75
2023-02-15T08:40:15.508Z,102159.63
2023-02-15T08:43:00.746Z,102192.19
2023-02-15T08:45:45.665Z,102181.06
2023-02-15T08:48:30.559Z,102176.75
2023-02-15T08:51:19.142Z,102160.22
2023-02-15T08:54:07.003Z,102189.34
2023-02-15T08:56:52.305Z,102177.19
2023-02-15T08:59:37.605Z,102174.47
2023-02-15T09:02:22.724Z,102173.72
2023-02-15T09:05:07.847Z,102153.94
2023-02-15T09:07:53.135Z,102181.41
2023-02-15T09:10:39.528Z,102175.44
2023-02-15T09:13:24.593Z,102174.66
2023-02-15T09:16:10.806Z,102168.59
2023-02-15T09:18:58.439Z,102167.69
2023-02-15T09:21:43.292Z,102152.25
2023-02-15T09:24:28.304Z,102161.63
2023-02-15T09:27:13.381Z,102157.38
2023-02-15T09:29:58.626Z,102153.06
2023-02-15T09:32:43.563Z,102157.25
2023-02-15T09:35:29.349Z,102150.31
2023-02-15T09:38:15.401Z,102158.03
2023-02-15T09:41:21.653Z,102155.44
2023-02-15T09:44:12.631Z,102163.22
2023-02-15T09:47:35.368Z,102162.28
2023-02-15T09:50:42.391Z,102163.91
2023-02-15T09:53:56.085Z,102166.50
2023-02-15T09:57:00.282Z,102175.94
2023-02-15T10:00:08.598Z,102170.69
2023-02-15T10:03:15.681Z,102150.03
2023-02-15T10:06:34.295Z,102173.16
2023-02-15T10:09:42.863Z,102163.66
2023-02-15T10:12:37.064Z,102175.66
2023-02-15T10:15:40.692Z,102165.19
2023-02-15T10:19:14.834Z,102158.97
2023-02-15T10:22:15.644Z,102137.50
2023-02-15T10:25:16.104Z,102133.94
2023-02-15T10:28:07.473Z,102167.28
2023-02-15T10:30:57.625Z,102157.78
2023-02-15T10:33:44.382Z,102152.50
2023-02-15T10:36:38.613Z,102154.06
2023-02-15T10:39:37.113Z,102161.78
2023-02-15T10:42:44.250Z,102154.75
2023-02-15T10:45:52.437Z,102158.88
2023-02-15T10:48:43.392Z,102154.47
2023-02-15T10:51:45.191Z,102137.09
2023-02-15T10:54:47.007Z,102153.16
2023-02-15T10:57:43.999Z,102148.75
2023-02-15T11:01:00.477Z,102154.56
2023-02-15T11:04:17.361Z,102146.53
2023-02-15T11:07:14.622Z,102142.75
2023-02-15T11:10:23.312Z,102141.78
2023-02-15T11:13:15.186Z,102150.09
2023-02-15T11:16:09.226Z,102143.97
2023-02-15T11:19:12.467Z,102146.22
2023-02-15T11:22:04.767Z,102114.22
2023-02-15T11:24:50.418Z,102141.47
2023-02-15T11:27:36.118Z,102137.09
2023-02-15T11:30:30.570Z,102134.44
2023-02-15T11:33:31.822Z,102127.16
2023-02-15T11:36:23.597Z,102135.38
2023-02-15T11:39:15.418Z,102129.81
2023-02-15T11:42:06.752Z,102113.13
2023-02-15T11:45:05.909Z,102112.91
2023-02-15T11:47:53.860Z,102111.19
2023-02-15T11:50:39.782Z,102114.59
2023-02-15T11:53:28.617Z,102070.50
2023-02-15T11:56:19.077Z,102093.03
2023-02-15T11:59:11.663Z,102099.41
2023-02-15T12:01:56.917Z,102076.34
2023-02-15T12:04:45.634Z,102071.69
2023-02-15T12:07:43.085Z,102066.75
2023-02-15T12:10:37.281Z,102067.94
2023-02-15T12:13:22.726Z,102060.50
2023-02-15T12:16:13.647Z,102042.63
2023-02-15T12:19:01.840Z,102038.41
2023-02-15T12:21:51.033Z,102033.31
2023-02-15T12:24:39.274Z,102036.16
2023-02-15T12:27:33.148Z,102033.00
2023-02-15T12:30:35.105Z,102019.72
2023-02-15T12:33:36.438Z,102032.44
2023-02-15T12:36:45.405Z,102022.50
2023-02-15T12:39:34.025Z,102024.16
2023-02-15T12:42:20.560Z,102032.13
2023-02-15T12:45:20.949Z,102025.19
2023-02-15T12:48:20.797Z,102035.31
2023-02-15T12:51:14.572Z,102025.94
2023-02-15T12:54:01.955Z,102021.34
2023-02-15T12:56:47.005Z,102034.50
2023-02-15T12:59:31.955Z,102033.88
2023-02-15T13:02:24.385Z,102026.16
2023-02-15T13:05:25.494Z,102025.09
2023-02-15T13:08:17.675Z,102019.47
2023-02-15T13:11:11.978Z,102003.16
2023-02-15T13:14:01.018Z,102000.91
2023-02-15T13:16:48.595Z,101994.84
2023-02-15T13:19:47.444Z,101992.19
2023-02-15T13:22:44.216Z,101985.91
2023-02-15T13:25:32.927Z,101984.94
2023-02-15T13:28:23.552Z,101996.66
2023-02-15T13:31:18.355Z,101989.25
2023-02-15T13:34:26.623Z,101989.78
2023-02-15T13:37:31.777Z,101990.16
2023-02-15T13:40:24.205Z,101980.38
2023-02-15T13:43:37.008Z,101987.06
2023-02-15T13:46:28.601Z,101949.84
2023-02-15T13:49:38.530Z,101979.63
2023-02-15T13:52:25.477Z,101955.00
2023-02-15T13:55:32.764Z,101964.63
2023-02-15T13:58:17.813Z,101964.53
2023-02-15T14:01:34.170Z,101966.53
2023-02-15T14:04:25.599Z,101963.88
2023-02-15T14:07:19.128Z,101962.56
2023-02-15T14:10:04.100Z,101961.75
2023-02-15T14:13:20.072Z,101962.03
2023-02-15T14:16:11.582Z,101965.03
2023-02-15T14:19:11.848Z,101963.34
2023-02-15T14:21:56.626Z,101954.41
2023-02-15T14:24:48.972Z,101937.47
2023-02-15T14:28:01.725Z,101953.63
2023-02-15T14:30:50.471Z,101949.75
2023-02-15T14:33:41.594Z,101950.88
2023-02-15T14:36:30.839Z,101925.28
2023-02-15T14:40:03.379Z,101943.78
2023-02-15T14:43:03.341Z,101940.59
2023-02-15T14:45:56.848Z,101932.69
2023-02-15T14:48:54.410Z,101940.00
2023-02-15T14:51:48.664Z,101944.41
2023-02-15T14:54:36.489Z,101951.34
2023-02-15T14:57:24.730Z,101941.84
2023-02-15T15:00:40.321Z,101941.47
2023-02-15T15:03:26.202Z,101940.66
2023-02-15T15:06:27.330Z,101938.69
2023-02-15T15:09:25.743Z,101935.13
2023-02-15T15:12:23.108Z,101945.28
2023-02-15T15:15:13.198Z,101936.22
2023-02-15T15:18:09.590Z,101940.09
2023-02-15T15:20:54.407Z,101940.41
2023-02-15T15:23:46.156Z,101936.81
2023-02-15T15:26:41.638Z,101943.56
2023-02-15T15:29:42.425Z,101942.56
2023-02-15T15:32:32.578Z,101953.19
2023-02-15T15:35:23.747Z,101939.53
2023-02-15T15:38:36.482Z,101947.13
2023-02-15T15:41:40.628Z,101952.63
2023-02-15T15:44:50.752Z,101953.16
2023-02-15T15:47:51.246Z,101955.09
2023-02-15T15:50:41.819Z,101967.06
2023-02-15T15:53:30.276Z,101956.22
2023-02-15T15:56:20.596Z,101955.84
2023-02-15T15:59:12.700Z,101959.81
2023-02-15T16:02:06.190Z,101963.63
2023-02-15T16:04:51.298Z,101957.84
2023-02-15T16:07:36.538Z,101958.19
2023-02-15T16:10:24.858Z,101961.28
2023-02-15T16:13:15.366Z,101969.34
2023-02-15T16:16:00.695Z,101966.09
2023-02-15T16:18:47.262Z,101959.41
2023-02-15T16:21:36.474Z,101948.03
2023-02-15T16:24:40.993Z,101971.31
2023-02-15T16:27:38.113Z,101967.16
2023-02-15T16:30:30.975Z,101964.16
2023-02-15T16:33:17.825Z,101959.41
2023-02-15T16:36:08.703Z,101964.88
2023-02-15T16:38:53.578Z,101973.91
2023-02-15T16:41:39.068Z,101952.00
2023-02-15T16:44:24.337Z,101973.75
2023-02-15T16:47:31.182Z,101973.13
2023-02-15T16:50:33.096Z,101979.69
2023-02-15T16:53:23.555Z,101976.56
2023-02-15T16:56:09.805Z,101975.97
2023-02-15T16:58:56.435Z,101979.88
2023-02-15T17:01:45.786Z,101975.19
2023-02-15T17:04:32.549Z,101972.09
2023-02-15T17:07:17.635Z,101974.78
2023-02-15T17:10:02.425Z,101970.84
2023-02-15T17:12:56.249Z,101970.34
2023-02-15T17:16:06.179Z,101974.09
2023-02-15T17:18:53.261Z,101986.56
2023-02-15T17:21:43.625Z,101987.69
2023-02-15T17:24:31.414Z,101986.41
2023-02-15T17:27:25.867Z,101983.22
2023-02-15T17:30:29.025Z,101974.84
2023-02-15T17:33:22.432Z,101978.81
2023-02-15T17:36:09.695Z,101980.91
2023-02-15T17:38:57.741Z,101981.19
2023-02-15T17:41:43.009Z,101987.59
2023-02-15T17:44:28.240Z,101986.94
2023-02-15T17:47:22.870Z,101990.56
2023-02-15T17:50:08.969Z,101995.84
2023-02-15T17:52:56.636Z,101955.88
2023-02-15T17:55:43.014Z,101994.50
2023-02-15T17:58:27.826Z,101993.03
2023-02-15T18:01:37.224Z,101992.47
2023-02-15T18:04:42.029Z,101981.59
2023-02-15T18:07:45.796Z,101984.72
2023-02-15T18:10:49.660Z,101984.97
2023-02-15T18:13:34.992Z,101985.22
2023-02-15T18:16:24.578Z,101986.28
2023-02-15T18:19:15.408Z,101989.97
2023-02-15T18:22:00.648Z,101981.81
2023-02-15T18:24:47.642Z,101987.88
2023-02-15T18:27:32.668Z,101989.81
2023-02-15T18:30:20.871Z,101995.03
2023-02-15T18:33:06.008Z,101980.84
2023-02-15T18:35:51.473Z,101974.84
2023-02-15T18:38:36.717Z,101996.97
2023-02-15T18:41:23.017Z,101990.97
2023-02-15T18:44:14.006Z,101992.50
2023-02-15T18:46:59.443Z,101991.75
2023-02-15T18:49:44.582Z,101957.81
2023-02-15T18:52:34.060Z,101993.47
2023-02-15T18:55:22.860Z,101996.13
2023-02-15T18:58:16.070Z,101994.44
2023-02-15T19:01:01.319Z,102000.50
2023-02-15T19:03:48.212Z,101966.47
2023-02-15T19:06:33.488Z,101996.97
2023-02-15T19:09:21.353Z,101998.69
2023-02-15T19:12:12.607Z,102002.16
2023-02-15T19:14:57.786Z,101997.78
2023-02-15T19:17:43.146Z,101993.47
2023-02-15T19:20:33.258Z,101998.44
2023-02-15T19:23:20.815Z,102007.19
2023-02-15T19:26:06.412Z,102010.63
2023-02-15T19:28:51.858Z,102003.53
2023-02-15T19:31:36.942Z,102002.81
2023-02-15T19:34:22.346Z,102003.66
2023-02-15T19:37:08.605Z,101999.41
2023-02-15T19:39:54.466Z,102001.31
2023-02-15T19:42:39.599Z,102008.28
2023-02-15T19:45:31.121Z,102008.22
2023-02-15T19:48:16.704Z,102003.00
2023-02-15T19:51:03.576Z,101996.97
2023-02-15T19:53:49.466Z,101992.91
2023-02-15T19:56:34.716Z,101974.84
2023-02-15T19:59:38.683Z,101999.84
2023-02-15T20:02:23.818Z,101989.50
2023-02-15T20:05:09.364Z,102003.38
2023-02-15T20:07:55.542Z,101982.25
2023-02-15T20:10:41.804Z,102017.28
2023-02-15T20:13:28.722Z,102007.66
2023-02-15T20:16:13.502Z,101999.03
2023-02-15T20:18:58.426Z,101996.66
2023-02-15T20:21:46.853Z,102003.78
2023-02-15T20:24:32.883Z,101972.06
2023-02-15T20:27:19.694Z,101996.00
2023-02-15T20:30:13.902Z,101981.38
2023-02-15T20:33:05.779Z,102000.00
2023-02-15T20:35:51.709Z,102008.63
2023-02-15T20:38:37.870Z,102005.97
2023-02-15T20:41:46.926Z,102008.47
2023-02-15T20:44:34.448Z,102010.22
2023-02-15T20:47:19.359Z,102008.41
2023-02-15T20:50:04.525Z,101996.63
2023-02-15T20:52:51.297Z,102018.88
2023-02-15T20:55:37.061Z,102011.06
2023-02-15T20:58:27.003Z,102010.22
2023-02-15T21:01:13.402Z,102015.25
2023-02-15T21:03:58.764Z,101991.19
2023-02-15T21:06:43.881Z,102004.81
2023-02-15T21:09:30.993Z,102003.78
2023-02-15T21:12:18.797Z,102010.66
2023-02-15T21:15:25.361Z,102009.13
2023-02-15T21:18:23.296Z,102015.22
2023-02-15T21:21:18.724Z,102010.81
2023-02-15T21:24:05.603Z,101989.50
2023-02-15T21:26:50.799Z,102011.63
2023-02-15T21:29:37.717Z,102009.94
2023-02-15T21:32:22.830Z,101993.59
2023-02-15T21:35:10.969Z,102005.47
2023-02-15T21:37:56.426Z,102009.00
2023-02-15T21:40:42.356Z,101995.91
2023-02-15T21:43:45.939Z,101998.28
2023-02-15T21:46:49.792Z,101964.56
2023-02-15T21:49:34.902Z,101989.13
2023-02-15T21:52:23.306Z,101957.69
2023-02-15T21:55:14.081Z,101989.13
2023-02-15T21:58:00.808Z,101989.97
2023-02-15T22:00:46.608Z,101981.09
2023-02-15T22:03:39.463Z,101954.47
2023-02-15T22:06:24.844Z,101977.69
2023-02-15T22:09:18.636Z,101976.13
2023-02-15T22:12:04.058Z,101985.78
2023-02-15T22:14:53.517Z,101960.78
2023-02-15T22:17:39.278Z,101985.84
2023-02-15T22:20:25.192Z,101973.16
2023-02-15T22:23:10.378Z,101989.38
2023-02-15T22:25:58.887Z,101991.81
2023-02-15T22:28:44.197Z,101989.06
2023-02-15T22:31:29.595Z,101990.84
2023-02-15T22:34:29.726Z,101985.47
2023-02-15T22:37:15.052Z,101970.50
2023-02-15T22:39:59.925Z,101981.81
2023-02-15T22:42:54.974Z,101969.53
2023-02-15T22:45:40.126Z,101948.25
2023-02-15T22:48:25.132Z,101977.19
2023-02-15T22:51:25.737Z,101977.13
2023-02-15T22:54:10.988Z,101976.94
2023-02-15T22:56:55.928Z,101975.16
2023-02-15T22:59:41.316Z,101953.88
2023-02-15T23:02:26.809Z,101973.53
2023-02-15T23:05:25.503Z,101957.84
2023-02-15T23:08:11.503Z,101954.41
2023-02-15T23:10:57.466Z,101979.19
2023-02-15T23:13:42.799Z,101980.81
2023-02-15T23:16:28.013Z,101980.69
2023-02-15T23:19:15.296Z,101971.88
2023-02-15T23:22:00.454Z,101957.34
2023-02-15T23:24:50.983Z,101960.50
2023-02-15T23:27:54.610Z,101977.75
2023-02-15T23:30:39.795Z,101969.97
2023-02-15T23:33:30.024Z,101978.47
2023-02-15T23:36:29.999Z,101984.41
2023-02-15T23:39:36.727Z,101956.94
2023-02-15T23:42:27.907Z,101973.25
2023-02-15T23:45:22.465Z,101985.91
2023-02-15T23:48:30.354Z,101988.38
2023-02-15T23:51:15.379Z,101983.09
2023-02-15T23:54:00.443Z,101976.94
2023-02-15T23:56:49.666Z,101968.53
2023-02-15T23:59:35.696Z,101978.53
